PRIVATE WETTERSTATION BILLIGHEIM-ALLFELD                       ZURCK
Wetterdaten: Mittwoch, 01.10.2014
Datum Zeit Temp. A. Temp. A. min Temp. A. max Feuchte A. Luftdruck Regen Wind Richtung Richtung Sonnenschein ET Solar Taupunkt Windchill Windben Empfang
01.10.2014 00:00 12,8 C 12,8 C 12,9 C 90 % 1025,2 hPa 0,0 l/m 0,0 km/h (0 Bft) W 270 0 min 0,000 mm 0 W/m 11,2 C 12,8 C 1,6 km/h (1 Bft) 99 %
01.10.2014 00:10 12,7 C 12,7 C 12,8 C 90 % 1025,1 hPa 0,0 l/m 0,0 km/h (0 Bft) N 0 0 min 0,000 mm 0 W/m 11,1 C 12,7 C 0,0 km/h (0 Bft) 100 %
01.10.2014 00:20 12,8 C 12,7 C 12,8 C 90 % 1025,1 hPa 0,0 l/m 0,0 km/h (0 Bft) N 0 0 min 0,000 mm 0 W/m 11,2 C 12,8 C 0,0 km/h (0 Bft) 100 %
01.10.2014 00:30 12,6 C 12,6 C 12,8 C 90 % 1025,1 hPa 0,0 l/m 0,0 km/h (0 Bft) N 0 0 min 0,000 mm 0 W/m 11,0 C 12,6 C 0,0 km/h (0 Bft) 100 %
01.10.2014 00:40 12,5 C 12,5 C 12,6 C 90 % 1025,0 hPa 0,0 l/m 0,0 km/h (0 Bft) W 270 0 min 0,000 mm 0 W/m 10,9 C 12,5 C 3,2 km/h (1 Bft) 89 %
01.10.2014 00:50 12,4 C 12,3 C 12,5 C 90 % 1025,0 hPa 0,0 l/m 0,0 km/h (0 Bft) W 270 0 min 0,000 mm 0 W/m 10,8 C 12,4 C 3,2 km/h (1 Bft) 100 %
01.10.2014 01:00 12,3 C 12,3 C 12,4 C 90 % 1025,0 hPa 0,0 l/m 0,0 km/h (0 Bft) N-NW 337 0 min 0,000 mm 0 W/m 10,7 C 12,3 C 3,2 km/h (1 Bft) 100 %
01.10.2014 01:10 12,2 C 12,2 C 12,3 C 90 % 1025,0 hPa 0,0 l/m 0,0 km/h (0 Bft) N 0 0 min 0,000 mm 0 W/m 10,6 C 12,2 C 0,0 km/h (0 Bft) 100 %
01.10.2014 01:20 12,1 C 12,1 C 12,2 C 90 % 1024,9 hPa 0,0 l/m 0,0 km/h (0 Bft) N-NW 337 0 min 0,000 mm 0 W/m 10,5 C 12,1 C 3,2 km/h (1 Bft) 100 %
01.10.2014 01:30 12,2 C 12,1 C 12,2 C 90 % 1025,1 hPa 0,0 l/m 0,0 km/h (0 Bft) N-NW 337 0 min 0,000 mm 0 W/m 10,6 C 12,2 C 1,6 km/h (1 Bft) 100 %
01.10.2014 01:40 12,2 C 12,2 C 12,2 C 90 % 1025,1 hPa 0,0 l/m 0,0 km/h (0 Bft) N-NW 337 0 min 0,000 mm 0 W/m 10,6 C 12,2 C 1,6 km/h (1 Bft) 100 %
01.10.2014 01:50 12,1 C 12,1 C 12,2 C 90 % 1025,1 hPa 0,0 l/m 0,0 km/h (0 Bft) N-NW 337 0 min 0,000 mm 0 W/m 10,5 C 12,1 C 3,2 km/h (1 Bft) 100 %
01.10.2014 02:00 11,9 C 11,9 C 12,1 C 90 % 1025,2 hPa 0,0 l/m 0,0 km/h (0 Bft) N 0 0 min 0,000 mm 0 W/m 10,3 C 11,9 C 0,0 km/h (0 Bft) 100 %
01.10.2014 02:10 11,9 C 11,9 C 11,9 C 90 % 1025,2 hPa 0,0 l/m 0,0 km/h (0 Bft) N-NW 337 0 min 0,000 mm 0 W/m 10,3 C 11,9 C 1,6 km/h (1 Bft) 100 %
01.10.2014 02:20 11,9 C 11,9 C 11,9 C 90 % 1025,2 hPa 0,0 l/m 0,0 km/h (0 Bft) N 0 0 min 0,000 mm 0 W/m 10,3 C 11,9 C 0,0 km/h (0 Bft) 100 %
01.10.2014 02:30 11,9 C 11,9 C 11,9 C 90 % 1025,2 hPa 0,0 l/m 0,0 km/h (0 Bft) N 0 0 min 0,000 mm 0 W/m 10,3 C 11,9 C 0,0 km/h (0 Bft) 100 %
01.10.2014 02:40 11,9 C 11,9 C 11,9 C 90 % 1025,1 hPa 0,0 l/m 0,0 km/h (0 Bft) N 0 0 min 0,000 mm 0 W/m 10,3 C 11,9 C 0,0 km/h (0 Bft) 100 %
01.10.2014 02:50 11,9 C 11,8 C 11,9 C 90 % 1025,1 hPa 0,0 l/m 0,0 km/h (0 Bft) N 0 0 min 0,000 mm 0 W/m 10,3 C 11,9 C 0,0 km/h (0 Bft) 100 %
01.10.2014 03:00 11,8 C 11,8 C 11,9 C 90 % 1025,1 hPa 0,0 l/m 0,0 km/h (0 Bft) N 0 0 min 0,000 mm 0 W/m 10,2 C 11,8 C 0,0 km/h (0 Bft) 100 %
01.10.2014 03:10 11,7 C 11,7 C 11,8 C 90 % 1025,2 hPa 0,0 l/m 0,0 km/h (0 Bft) N-NW 337 0 min 0,000 mm 0 W/m 10,1 C 11,7 C 3,2 km/h (1 Bft) 100 %
01.10.2014 03:20 11,6 C 11,6 C 11,7 C 90 % 1025,1 hPa 0,0 l/m 0,0 km/h (0 Bft) N 0 0 min 0,000 mm 0 W/m 10,0 C 11,6 C 0,0 km/h (0 Bft) 100 %
01.10.2014 03:30 11,6 C 11,6 C 11,6 C 90 % 1025,0 hPa 0,0 l/m 0,0 km/h (0 Bft) N 0 0 min 0,000 mm 0 W/m 10,0 C 11,6 C 0,0 km/h (0 Bft) 100 %
01.10.2014 03:40 11,6 C 11,6 C 11,6 C 90 % 1025,0 hPa 0,0 l/m 0,0 km/h (0 Bft) N 0 0 min 0,000 mm 0 W/m 10,0 C 11,6 C 0,0 km/h (0 Bft) 100 %
01.10.2014 03:50 11,6 C 11,6 C 11,6 C 90 % 1025,1 hPa 0,0 l/m 0,0 km/h (0 Bft) N 0 0 min 0,000 mm 0 W/m 10,0 C 11,6 C 0,0 km/h (0 Bft) 100 %
01.10.2014 04:00 11,5 C 11,5 C 11,6 C 90 % 1025,1 hPa 0,0 l/m 0,0 km/h (0 Bft) N 0 0 min 0,000 mm 0 W/m 9,9 C 11,5 C 0,0 km/h (0 Bft) 99 %
01.10.2014 04:10 11,6 C 11,5 C 11,6 C 90 % 1025,2 hPa 0,0 l/m 0,0 km/h (0 Bft) N 0 0 min 0,000 mm 0 W/m 10,0 C 11,6 C 0,0 km/h (0 Bft) 100 %
01.10.2014 04:20 11,6 C 11,6 C 11,7 C 90 % 1025,2 hPa 0,0 l/m 0,0 km/h (0 Bft) N 0 0 min 0,000 mm 0 W/m 10,0 C 11,6 C 0,0 km/h (0 Bft) 100 %
01.10.2014 04:30 11,8 C 11,6 C 11,8 C 90 % 1025,2 hPa 0,0 l/m 0,0 km/h (0 Bft) N 0 0 min 0,000 mm 0 W/m 10,2 C 11,8 C 0,0 km/h (0 Bft) 100 %
01.10.2014 04:40 11,8 C 11,8 C 11,9 C 90 % 1025,2 hPa 0,0 l/m 0,0 km/h (0 Bft) N 0 0 min 0,000 mm 0 W/m 10,2 C 11,8 C 0,0 km/h (0 Bft) 99 %
01.10.2014 04:50 11,9 C 11,9 C 11,9 C 90 % 1025,1 hPa 0,0 l/m 0,0 km/h (0 Bft) N 0 0 min 0,000 mm 0 W/m 10,3 C 11,9 C 0,0 km/h (0 Bft) 100 %
01.10.2014 05:00 11,9 C 11,9 C 11,9 C 90 % 1025,2 hPa 0,0 l/m 0,0 km/h (0 Bft) N-NW 337 0 min 0,000 mm 0 W/m 10,3 C 11,9 C 3,2 km/h (1 Bft) 99 %
01.10.2014 05:10 11,8 C 11,8 C 11,9 C 90 % 1025,2 hPa 0,0 l/m 0,0 km/h (0 Bft) N-NW 337 0 min 0,000 mm 0 W/m 10,2 C 11,8 C 1,6 km/h (1 Bft) 100 %
01.10.2014 05:20 11,6 C 11,6 C 11,8 C 90 % 1025,2 hPa 0,0 l/m 0,0 km/h (0 Bft) N-NW 337 0 min 0,000 mm 0 W/m 10,0 C 11,6 C 3,2 km/h (1 Bft) 100 %
01.10.2014 05:30 11,6 C 11,6 C 11,6 C 90 % 1025,2 hPa 0,0 l/m 0,0 km/h (0 Bft) N 0 0 min 0,000 mm 0 W/m 10,0 C 11,6 C 0,0 km/h (0 Bft) 100 %
01.10.2014 05:40 11,7 C 11,6 C 11,7 C 90 % 1025,2 hPa 0,0 l/m 0,0 km/h (0 Bft) N-NW 337 0 min 0,000 mm 0 W/m 10,1 C 11,7 C 3,2 km/h (1 Bft) 100 %
01.10.2014 05:50 11,7 C 11,7 C 11,7 C 90 % 1025,1 hPa 0,0 l/m 0,0 km/h (0 Bft) N 0 0 min 0,000 mm 0 W/m 10,1 C 11,7 C 0,0 km/h (0 Bft) 100 %
01.10.2014 06:00 11,8 C 11,7 C 11,8 C 90 % 1025,1 hPa 0,0 l/m 0,0 km/h (0 Bft) N 0 0 min 0,000 mm 0 W/m 10,2 C 11,8 C 0,0 km/h (0 Bft) 100 %
01.10.2014 06:10 11,9 C 11,8 C 11,9 C 90 % 1025,1 hPa 0,0 l/m 0,0 km/h (0 Bft) N 0 0 min 0,000 mm 0 W/m 10,3 C 11,9 C 0,0 km/h (0 Bft) 100 %
01.10.2014 06:20 12,0 C 11,9 C 12,0 C 90 % 1025,1 hPa 0,0 l/m 0,0 km/h (0 Bft) N 0 0 min 0,000 mm 0 W/m 10,4 C 12,0 C 0,0 km/h (0 Bft) 100 %
01.10.2014 06:30 12,1 C 12,0 C 12,1 C 90 % 1025,1 hPa 0,0 l/m 0,0 km/h (0 Bft) N-NW 337 0 min 0,000 mm 0 W/m 10,5 C 12,1 C 1,6 km/h (1 Bft) 100 %
01.10.2014 06:40 11,9 C 11,9 C 12,1 C 90 % 1025,2 hPa 0,0 l/m 0,0 km/h (0 Bft) N 0 0 min 0,000 mm 0 W/m 10,3 C 11,9 C 0,0 km/h (0 Bft) 100 %
01.10.2014 06:50 11,9 C 11,9 C 12,0 C 90 % 1025,2 hPa 0,0 l/m 0,0 km/h (0 Bft) N 0 0 min 0,000 mm 0 W/m 10,3 C 11,9 C 0,0 km/h (0 Bft) 100 %
01.10.2014 07:00 11,9 C 11,9 C 11,9 C 90 % 1025,2 hPa 0,0 l/m 0,0 km/h (0 Bft) N 0 0 min 0,000 mm 0 W/m 10,3 C 11,9 C 0,0 km/h (0 Bft) 100 %
01.10.2014 07:10 12,0 C 11,9 C 12,0 C 90 % 1025,2 hPa 0,0 l/m 0,0 km/h (0 Bft) N 0 0 min 0,000 mm 0 W/m 10,4 C 12,0 C 0,0 km/h (0 Bft) 100 %
01.10.2014 07:20 12,2 C 12,0 C 12,2 C 90 % 1025,2 hPa 0,0 l/m 0,0 km/h (0 Bft) N-NW 337 0 min 0,000 mm 0 W/m 10,6 C 12,2 C 3,2 km/h (1 Bft) 100 %
01.10.2014 07:30 12,4 C 12,2 C 12,4 C 90 % 1025,2 hPa 0,0 l/m 0,0 km/h (0 Bft) O-SO 112 0 min 0,000 mm 0 W/m 10,8 C 12,4 C 1,6 km/h (1 Bft) 100 %
01.10.2014 07:40 12,6 C 12,4 C 12,6 C 90 % 1025,2 hPa 0,0 l/m 0,0 km/h (0 Bft) N 0 0 min 0,000 mm 0 W/m 11,0 C 12,6 C 0,0 km/h (0 Bft) 100 %
01.10.2014 07:50 12,7 C 12,6 C 12,7 C 90 % 1025,3 hPa 0,0 l/m 0,0 km/h (0 Bft) N 0 0 min 0,000 mm 7 W/m 11,1 C 12,7 C 0,0 km/h (0 Bft) 100 %
01.10.2014 08:00 12,7 C 12,7 C 12,7 C 90 % 1025,3 hPa 0,0 l/m 0,0 km/h (0 Bft) SO 135 0 min 0,000 mm 16 W/m 11,1 C 12,7 C 1,6 km/h (1 Bft) 100 %
01.10.2014 08:10 12,8 C 12,7 C 12,8 C 90 % 1025,4 hPa 0,0 l/m 0,0 km/h (0 Bft) N 0 0 min 0,000 mm 25 W/m 11,2 C 12,8 C 0,0 km/h (0 Bft) 100 %
01.10.2014 08:20 12,8 C 12,8 C 12,8 C 90 % 1025,4 hPa 0,0 l/m 0,0 km/h (0 Bft) SO 135 0 min 0,000 mm 26 W/m 11,2 C 12,8 C 1,6 km/h (1 Bft) 100 %
01.10.2014 08:30 12,8 C 12,8 C 12,8 C 90 % 1025,4 hPa 0,0 l/m 0,0 km/h (0 Bft) SO 135 0 min 0,000 mm 23 W/m 11,2 C 12,8 C 3,2 km/h (1 Bft) 100 %
01.10.2014 08:40 12,8 C 12,8 C 12,9 C 90 % 1025,4 hPa 0,0 l/m 0,0 km/h (0 Bft) SO 135 0 min 0,000 mm 40 W/m 11,2 C 12,8 C 1,6 km/h (1 Bft) 100 %
01.10.2014 08:50 12,9 C 12,8 C 12,9 C 90 % 1025,5 hPa 0,0 l/m 0,0 km/h (0 Bft) N 0 0 min 0,000 mm 69 W/m 11,3 C 12,9 C 0,0 km/h (0 Bft) 100 %
01.10.2014 09:00 13,0 C 12,9 C 13,0 C 90 % 1025,6 hPa 0,0 l/m 0,0 km/h (0 Bft) N 0 0 min 0,025 mm 67 W/m 11,4 C 13,0 C 0,0 km/h (0 Bft) 100 %
01.10.2014 09:10 13,0 C 12,9 C 13,0 C 90 % 1025,6 hPa 0,0 l/m 0,0 km/h (0 Bft) N 0 0 min 0,000 mm 113 W/m 11,4 C 13,0 C 0,0 km/h (0 Bft) 100 %
01.10.2014 09:20 13,2 C 13,0 C 13,2 C 90 % 1025,7 hPa 0,0 l/m 0,0 km/h (0 Bft) N 0 0 min 0,000 mm 127 W/m 11,6 C 13,2 C 0,0 km/h (0 Bft) 100 %
01.10.2014 09:30 13,5 C 13,2 C 13,5 C 90 % 1025,8 hPa 0,0 l/m 0,0 km/h (0 Bft) SO 135 0 min 0,000 mm 130 W/m 11,9 C 13,5 C 3,2 km/h (1 Bft) 100 %
01.10.2014 09:40 13,7 C 13,2 C 13,7 C 90 % 1025,9 hPa 0,0 l/m 0,0 km/h (0 Bft) SO 125 0 min 0,000 mm 123 W/m 12,1 C 13,7 C 0,0 km/h (0 Bft) 100 %
01.10.2014 09:50 13,6 C 13,6 C 13,7 C 90 % 1025,8 hPa 0,0 l/m 0,1 km/h (0 Bft) SO 125 10 min 0,000 mm 200 W/m 12,0 C 13,6 C 3,2 km/h (1 Bft) 100 %
01.10.2014 10:00 13,9 C 13,6 C 13,9 C 90 % 1025,9 hPa 0,0 l/m 0,0 km/h (0 Bft) SO 125 10 min 0,077 mm 220 W/m 12,3 C 13,9 C 1,6 km/h (1 Bft) 100 %
01.10.2014 10:10 14,2 C 13,9 C 14,2 C 90 % 1025,8 hPa 0,0 l/m 0,3 km/h (0 Bft) S 181 10 min 0,000 mm 160 W/m 12,6 C 14,2 C 4,8 km/h (1 Bft) 100 %
01.10.2014 10:20 14,4 C 14,2 C 14,4 C 90 % 1025,9 hPa 0,0 l/m 0,0 km/h (0 Bft) S-SW 194 10 min 0,000 mm 206 W/m 12,8 C 14,4 C 1,6 km/h (1 Bft) 99 %
01.10.2014 10:30 14,4 C 14,3 C 14,4 C 90 % 1026,0 hPa 0,0 l/m 0,0 km/h (0 Bft) S-SW 195 10 min 0,000 mm 183 W/m 12,8 C 14,4 C 1,6 km/h (1 Bft) 100 %
01.10.2014 10:40 14,7 C 14,4 C 14,7 C 90 % 1026,1 hPa 0,0 l/m 0,0 km/h (0 Bft) S-SW 196 10 min 0,000 mm 197 W/m 13,1 C 14,7 C 1,6 km/h (1 Bft) 100 %
01.10.2014 10:50 14,7 C 14,7 C 14,8 C 90 % 1026,1 hPa 0,0 l/m 0,2 km/h (0 Bft) S-SW 195 10 min 0,000 mm 193 W/m 13,1 C 14,7 C 4,8 km/h (1 Bft) 99 %
01.10.2014 11:00 14,6 C 14,6 C 14,7 C 90 % 1026,1 hPa 0,0 l/m 0,0 km/h (0 Bft) S-SW 192 10 min 0,101 mm 267 W/m 13,0 C 14,6 C 1,6 km/h (1 Bft) 100 %
01.10.2014 11:10 14,8 C 14,6 C 14,8 C 90 % 1026,1 hPa 0,0 l/m 0,6 km/h (0 Bft) S-SW 201 10 min 0,000 mm 218 W/m 13,2 C 14,8 C 6,4 km/h (2 Bft) 100 %
01.10.2014 11:20 14,9 C 14,8 C 14,9 C 90 % 1026,1 hPa 0,0 l/m 1,3 km/h (1 Bft) S-SO 148 10 min 0,000 mm 264 W/m 13,3 C 14,9 C 8,0 km/h (2 Bft) 99 %
01.10.2014 11:30 15,3 C 14,9 C 15,3 C 90 % 1026,1 hPa 0,0 l/m 2,0 km/h (1 Bft) S-SW 210 10 min 0,000 mm 396 W/m 13,7 C 15,3 C 8,0 km/h (2 Bft) 100 %
01.10.2014 11:40 15,9 C 15,3 C 15,9 C 90 % 1026,1 hPa 0,0 l/m 2,6 km/h (1 Bft) S 173 10 min 0,000 mm 529 W/m 14,3 C 15,9 C 8,0 km/h (2 Bft) 100 %
01.10.2014 11:50 16,3 C 15,9 C 16,3 C 90 % 1026,1 hPa 0,0 l/m 3,9 km/h (1 Bft) S 191 10 min 0,000 mm 538 W/m 14,7 C 16,3 C 9,7 km/h (2 Bft) 100 %
01.10.2014 12:00 16,9 C 16,3 C 16,9 C 90 % 1026,1 hPa 0,0 l/m 4,5 km/h (1 Bft) S 190 10 min 0,203 mm 561 W/m 15,2 C 16,9 C 9,7 km/h (2 Bft) 100 %
01.10.2014 12:10 17,2 C 16,9 C 17,2 C 90 % 1026,2 hPa 0,0 l/m 4,0 km/h (1 Bft) S 190 10 min 0,000 mm 564 W/m 15,5 C 17,2 C 9,7 km/h (2 Bft) 100 %
01.10.2014 12:20 17,4 C 17,2 C 17,4 C 90 % 1026,2 hPa 0,0 l/m 4,0 km/h (1 Bft) S-SO 155 10 min 0,000 mm 555 W/m 15,7 C 17,4 C 9,7 km/h (2 Bft) 100 %
01.10.2014 12:30 18,0 C 17,4 C 18,0 C 90 % 1026,2 hPa 0,0 l/m 7,1 km/h (2 Bft) S 184 10 min 0,000 mm 552 W/m 16,3 C 17,7 C 14,5 km/h (3 Bft) 100 %
01.10.2014 12:40 18,3 C 18,0 C 18,3 C 88 % 1026,3 hPa 0,0 l/m 5,4 km/h (1 Bft) S-SO 147 10 min 0,000 mm 441 W/m 16,3 C 18,3 C 12,9 km/h (3 Bft) 100 %
01.10.2014 12:50 18,3 C 18,3 C 18,3 C 87 % 1026,1 hPa 0,0 l/m 5,1 km/h (1 Bft) S-SW 202 10 min 0,000 mm 577 W/m 16,1 C 18,3 C 14,5 km/h (3 Bft) 100 %
01.10.2014 13:00 18,7 C 18,3 C 18,7 C 87 % 1025,9 hPa 0,0 l/m 5,9 km/h (2 Bft) S 178 10 min 0,305 mm 582 W/m 16,5 C 18,7 C 14,5 km/h (3 Bft) 100 %
01.10.2014 13:10 19,0 C 18,7 C 19,0 C 86 % 1025,9 hPa 0,0 l/m 5,7 km/h (1 Bft) S-SW 213 10 min 0,000 mm 585 W/m 16,6 C 19,0 C 16,1 km/h (3 Bft) 100 %
01.10.2014 13:20 19,1 C 19,0 C 19,2 C 83 % 1025,9 hPa 0,0 l/m 3,8 km/h (1 Bft) S 180 10 min 0,000 mm 596 W/m 16,1 C 19,1 C 9,7 km/h (2 Bft) 100 %
01.10.2014 13:30 19,6 C 19,1 C 19,6 C 83 % 1025,8 hPa 0,0 l/m 5,4 km/h (1 Bft) S 175 10 min 0,000 mm 613 W/m 16,6 C 19,6 C 12,9 km/h (3 Bft) 100 %
01.10.2014 13:40 19,6 C 19,5 C 19,6 C 81 % 1025,8 hPa 0,0 l/m 3,9 km/h (1 Bft) S-SO 167 10 min 0,000 mm 689 W/m 16,2 C 19,6 C 11,3 km/h (2 Bft) 100 %
01.10.2014 13:50 20,0 C 19,6 C 20,0 C 81 % 1025,7 hPa 0,0 l/m 3,5 km/h (1 Bft) S-SW 204 10 min 0,000 mm 752 W/m 16,6 C 20,0 C 11,3 km/h (2 Bft) 100 %
01.10.2014 14:00 20,1 C 20,0 C 20,1 C 79 % 1025,6 hPa 0,0 l/m 4,4 km/h (1 Bft) S 178 10 min 0,356 mm 348 W/m 16,3 C 20,1 C 14,5 km/h (3 Bft) 100 %
01.10.2014 14:10 20,2 C 20,1 C 20,2 C 77 % 1025,5 hPa 0,0 l/m 1,3 km/h (1 Bft) S 186 10 min 0,000 mm 188 W/m 16,0 C 20,2 C 11,3 km/h (2 Bft) 100 %
01.10.2014 14:20 20,1 C 20,1 C 20,2 C 82 % 1025,4 hPa 1,2 l/m 0,3 km/h (0 Bft) N-NO 12 0 min 0,000 mm 113 W/m 16,9 C 20,1 C 8,0 km/h (2 Bft) 100 %
01.10.2014 14:30 19,3 C 19,3 C 20,1 C 86 % 1025,4 hPa 1,2 l/m 0,0 km/h (0 Bft) N-NO 12 0 min 0,000 mm 90 W/m 16,9 C 19,3 C 1,6 km/h (1 Bft) 100 %
01.10.2014 14:40 18,7 C 18,7 C 19,3 C 88 % 1025,5 hPa 0,0 l/m 0,0 km/h (0 Bft) N-NO 12 0 min 0,000 mm 70 W/m 16,7 C 18,7 C 1,6 km/h (1 Bft) 100 %
01.10.2014 14:50 18,2 C 18,2 C 18,7 C 88 % 1025,4 hPa 0,2 l/m 4,3 km/h (1 Bft) NW 315 0 min 0,000 mm 63 W/m 16,2 C 18,2 C 9,7 km/h (2 Bft) 100 %
01.10.2014 15:00 17,2 C 17,2 C 18,2 C 88 % 1025,2 hPa 0,6 l/m 0,0 km/h (0 Bft) N-NW 333 0 min 0,076 mm 90 W/m 15,2 C 17,2 C 1,6 km/h (1 Bft) 100 %
01.10.2014 15:10 16,5 C 16,5 C 17,2 C 89 % 1025,5 hPa 0,0 l/m 0,0 km/h (0 Bft) N-NW 336 0 min 0,000 mm 88 W/m 14,7 C 16,5 C 1,6 km/h (1 Bft) 100 %
01.10.2014 15:20 16,4 C 16,4 C 16,5 C 90 % 1025,3 hPa 0,2 l/m 0,0 km/h (0 Bft) N-NW 336 0 min 0,000 mm 93 W/m 14,8 C 16,4 C 1,6 km/h (1 Bft) 100 %
01.10.2014 15:30 16,5 C 16,4 C 16,5 C 90 % 1025,3 hPa 0,0 l/m 0,0 km/h (0 Bft) N-NW 336 0 min 0,000 mm 104 W/m 14,9 C 16,5 C 0,0 km/h (0 Bft) 100 %
01.10.2014 15:40 16,3 C 16,3 C 16,6 C 90 % 1025,2 hPa 0,0 l/m 0,0 km/h (0 Bft) N-NW 336 0 min 0,000 mm 104 W/m 14,7 C 16,3 C 1,6 km/h (1 Bft) 100 %
01.10.2014 15:50 16,4 C 16,3 C 16,4 C 90 % 1025,2 hPa 0,0 l/m 0,0 km/h (0 Bft) N-NW 336 0 min 0,000 mm 104 W/m 14,8 C 16,4 C 0,0 km/h (0 Bft) 100 %
01.10.2014 16:00 16,6 C 16,4 C 16,6 C 90 % 1025,1 hPa 0,0 l/m 0,0 km/h (0 Bft) N-NW 336 0 min 0,051 mm 102 W/m 15,0 C 16,6 C 1,6 km/h (1 Bft) 100 %
01.10.2014 16:10 16,6 C 16,5 C 16,6 C 90 % 1025,1 hPa 0,0 l/m 0,0 km/h (0 Bft) N-NW 336 0 min 0,000 mm 95 W/m 15,0 C 16,6 C 0,0 km/h (0 Bft) 100 %
01.10.2014 16:20 16,8 C 16,6 C 16,8 C 90 % 1025,1 hPa 0,0 l/m 0,0 km/h (0 Bft) N-NW 336 0 min 0,000 mm 97 W/m 15,1 C 16,8 C 0,0 km/h (0 Bft) 100 %
01.10.2014 16:30 16,6 C 16,6 C 16,9 C 90 % 1025,1 hPa 0,0 l/m 0,0 km/h (0 Bft) N-NW 336 0 min 0,000 mm 100 W/m 15,0 C 16,6 C 0,0 km/h (0 Bft) 99 %
01.10.2014 16:40 16,6 C 16,6 C 16,6 C 90 % 1025,1 hPa 0,0 l/m 0,0 km/h (0 Bft) N-NW 336 0 min 0,000 mm 114 W/m 15,0 C 16,6 C 0,0 km/h (0 Bft) 100 %
01.10.2014 16:50 16,4 C 16,3 C 16,6 C 90 % 1025,0 hPa 0,0 l/m 0,4 km/h (0 Bft) N-NW 336 0 min 0,000 mm 141 W/m 14,8 C 16,4 C 3,2 km/h (1 Bft) 100 %
01.10.2014 17:00 16,5 C 16,4 C 16,5 C 90 % 1025,1 hPa 0,0 l/m 0,0 km/h (0 Bft) N-NW 336 0 min 0,051 mm 141 W/m 14,9 C 16,5 C 0,0 km/h (0 Bft) 100 %
01.10.2014 17:10 17,1 C 16,5 C 17,1 C 90 % 1025,1 hPa 0,0 l/m 0,0 km/h (0 Bft) N-NW 336 0 min 0,000 mm 132 W/m 15,4 C 17,1 C 1,6 km/h (1 Bft) 100 %
01.10.2014 17:20 17,7 C 17,1 C 17,7 C 90 % 1025,1 hPa 0,0 l/m 0,0 km/h (0 Bft) N-NW 336 0 min 0,000 mm 100 W/m 16,0 C 17,7 C 0,0 km/h (0 Bft) 100 %
01.10.2014 17:30 17,9 C 17,7 C 17,9 C 89 % 1025,2 hPa 0,0 l/m 0,0 km/h (0 Bft) N-NW 336 0 min 0,000 mm 98 W/m 16,1 C 17,9 C 0,0 km/h (0 Bft) 100 %
01.10.2014 17:40 17,9 C 17,9 C 17,9 C 88 % 1025,2 hPa 0,0 l/m 0,0 km/h (0 Bft) N-NW 336 0 min 0,000 mm 67 W/m 15,9 C 17,9 C 0,0 km/h (0 Bft) 100 %
01.10.2014 17:50 18,0 C 17,9 C 18,0 C 88 % 1025,2 hPa 0,0 l/m 0,0 km/h (0 Bft) N-NW 336 0 min 0,000 mm 47 W/m 16,0 C 18,0 C 0,0 km/h (0 Bft) 100 %
01.10.2014 18:00 17,9 C 17,9 C 18,0 C 88 % 1025,3 hPa 0,0 l/m 0,0 km/h (0 Bft) N-NW 336 0 min 0,050 mm 40 W/m 15,9 C 17,9 C 1,6 km/h (1 Bft) 100 %
01.10.2014 18:10 17,9 C 17,9 C 17,9 C 89 % 1025,4 hPa 0,0 l/m 0,0 km/h (0 Bft) N-NW 336 0 min 0,000 mm 37 W/m 16,1 C 17,9 C 0,0 km/h (0 Bft) 100 %
01.10.2014 18:20 17,9 C 17,9 C 17,9 C 89 % 1025,4 hPa 0,0 l/m 0,0 km/h (0 Bft) N-NW 336 0 min 0,000 mm 32 W/m 16,1 C 17,9 C 1,6 km/h (1 Bft) 100 %
01.10.2014 18:30 17,7 C 17,7 C 17,9 C 90 % 1025,3 hPa 0,0 l/m 0,0 km/h (0 Bft) N-NW 336 0 min 0,000 mm 21 W/m 16,0 C 17,7 C 0,0 km/h (0 Bft) 100 %
01.10.2014 18:40 17,4 C 17,4 C 17,7 C 90 % 1025,4 hPa 0,0 l/m 0,0 km/h (0 Bft) N-NW 336 0 min 0,000 mm 14 W/m 15,7 C 17,4 C 0,0 km/h (0 Bft) 100 %
01.10.2014 18:50 17,1 C 17,1 C 17,4 C 90 % 1025,4 hPa 0,0 l/m 0,0 km/h (0 Bft) N-NW 336 0 min 0,000 mm 7 W/m 15,4 C 17,1 C 0,0 km/h (0 Bft) 100 %
01.10.2014 19:00 16,8 C 16,8 C 17,1 C 90 % 1025,6 hPa 0,0 l/m 0,0 km/h (0 Bft) N-NW 336 0 min 0,026 mm 0 W/m 15,1 C 16,8 C 0,0 km/h (0 Bft) 100 %
01.10.2014 19:10 16,6 C 16,6 C 16,8 C 90 % 1025,6 hPa 0,0 l/m 0,0 km/h (0 Bft) N-NW 336 0 min 0,000 mm 0 W/m 15,0 C 16,6 C 0,0 km/h (0 Bft) 100 %
01.10.2014 19:20 16,3 C 16,3 C 16,6 C 90 % 1025,6 hPa 0,0 l/m 0,0 km/h (0 Bft) N-NW 336 0 min 0,000 mm 0 W/m 14,7 C 16,3 C 0,0 km/h (0 Bft) 100 %
01.10.2014 19:30 16,1 C 16,1 C 16,3 C 90 % 1025,7 hPa 0,0 l/m 0,0 km/h (0 Bft) N-NW 336 0 min 0,000 mm 0 W/m 14,5 C 16,1 C 0,0 km/h (0 Bft) 100 %
01.10.2014 19:40 15,9 C 15,9 C 16,1 C 90 % 1025,8 hPa 0,0 l/m 0,0 km/h (0 Bft) N-NW 336 0 min 0,000 mm 0 W/m 14,3 C 15,9 C 0,0 km/h (0 Bft) 100 %
01.10.2014 19:50 15,7 C 15,7 C 15,9 C 90 % 1025,9 hPa 0,0 l/m 0,0 km/h (0 Bft) N-NW 336 0 min 0,000 mm 0 W/m 14,1 C 15,7 C 0,0 km/h (0 Bft) 100 %
01.10.2014 20:00 15,4 C 15,4 C 15,7 C 90 % 1026,0 hPa 0,0 l/m 0,0 km/h (0 Bft) N-NW 336 0 min 0,000 mm 0 W/m 13,8 C 15,4 C 0,0 km/h (0 Bft) 100 %
01.10.2014 20:10 15,2 C 15,2 C 15,4 C 90 % 1026,0 hPa 0,0 l/m 0,0 km/h (0 Bft) N-NW 336 0 min 0,000 mm 0 W/m 13,6 C 15,2 C 0,0 km/h (0 Bft) 100 %
01.10.2014 20:20 15,1 C 15,1 C 15,2 C 90 % 1026,2 hPa 0,0 l/m 1,7 km/h (1 Bft) N-NW 336 0 min 0,000 mm 0 W/m 13,5 C 15,1 C 4,8 km/h (1 Bft) 100 %
01.10.2014 20:30 14,8 C 14,8 C 15,1 C 90 % 1026,3 hPa 0,0 l/m 0,0 km/h (0 Bft) N-NW 336 0 min 0,000 mm 0 W/m 13,2 C 14,8 C 1,6 km/h (1 Bft) 100 %
01.10.2014 20:40 14,7 C 14,7 C 14,8 C 90 % 1026,3 hPa 0,0 l/m 0,0 km/h (0 Bft) N-NW 336 0 min 0,000 mm 0 W/m 13,1 C 14,7 C 1,6 km/h (1 Bft) 100 %
01.10.2014 20:50 14,6 C 14,6 C 14,7 C 90 % 1026,4 hPa 0,0 l/m 0,0 km/h (0 Bft) N-NW 336 0 min 0,000 mm 0 W/m 13,0 C 14,6 C 1,6 km/h (1 Bft) 100 %
01.10.2014 21:00 14,6 C 14,5 C 14,6 C 90 % 1026,4 hPa 0,0 l/m 0,0 km/h (0 Bft) N-NW 336 0 min 0,000 mm 0 W/m 13,0 C 14,6 C 0,0 km/h (0 Bft) 99 %
01.10.2014 21:10 14,4 C 14,4 C 14,5 C 90 % 1026,6 hPa 0,0 l/m 0,0 km/h (0 Bft) N 0 0 min 0,000 mm 0 W/m 12,8 C 14,4 C 0,0 km/h (0 Bft) 100 %
01.10.2014 21:20 14,3 C 14,3 C 14,4 C 90 % 1026,6 hPa 0,0 l/m 0,0 km/h (0 Bft) N 0 0 min 0,000 mm 0 W/m 12,7 C 14,3 C 0,0 km/h (0 Bft) 100 %
01.10.2014 21:30 14,3 C 14,3 C 14,3 C 90 % 1026,7 hPa 0,0 l/m 0,0 km/h (0 Bft) N 0 0 min 0,000 mm 0 W/m 12,7 C 14,3 C 0,0 km/h (0 Bft) 91 %
01.10.2014 21:40 14,3 C 14,3 C 14,3 C 90 % 1026,8 hPa 0,0 l/m 0,0 km/h (0 Bft) N 0 0 min 0,000 mm 0 W/m 12,7 C 14,3 C 0,0 km/h (0 Bft) 100 %
01.10.2014 21:50 14,1 C 14,1 C 14,3 C 90 % 1026,8 hPa 0,0 l/m 0,0 km/h (0 Bft) N 0 0 min 0,000 mm 0 W/m 12,5 C 14,1 C 0,0 km/h (0 Bft) 100 %
01.10.2014 22:00 14,0 C 13,9 C 14,1 C 90 % 1026,8 hPa 0,0 l/m 0,0 km/h (0 Bft) N 0 0 min 0,000 mm 0 W/m 12,4 C 14,0 C 0,0 km/h (0 Bft) 100 %
01.10.2014 22:10 13,9 C 13,9 C 14,0 C 90 % 1026,9 hPa 0,0 l/m 0,0 km/h (0 Bft) N 0 0 min 0,000 mm 0 W/m 12,3 C 13,9 C 0,0 km/h (0 Bft) 100 %
01.10.2014 22:20 13,9 C 13,9 C 13,9 C 90 % 1026,9 hPa 0,0 l/m 0,0 km/h (0 Bft) N 0 0 min 0,000 mm 0 W/m 12,3 C 13,9 C 0,0 km/h (0 Bft) 100 %
01.10.2014 22:30 13,8 C 13,8 C 13,9 C 90 % 1027,1 hPa 0,0 l/m 0,0 km/h (0 Bft) N 0 0 min 0,000 mm 0 W/m 12,2 C 13,8 C 0,0 km/h (0 Bft) 100 %
01.10.2014 22:40 13,4 C 13,4 C 13,8 C 90 % 1026,8 hPa 0,0 l/m 0,0 km/h (0 Bft) N-NW 337 0 min 0,000 mm 0 W/m 11,8 C 13,4 C 1,6 km/h (1 Bft) 100 %
01.10.2014 22:50 13,3 C 13,3 C 13,4 C 90 % 1027,0 hPa 0,0 l/m 1,6 km/h (1 Bft) N-NW 337 0 min 0,000 mm 0 W/m 11,7 C 13,3 C 3,2 km/h (1 Bft) 100 %
01.10.2014 23:00 13,0 C 13,0 C 13,3 C 90 % 1027,1 hPa 0,0 l/m 0,0 km/h (0 Bft) N-NW 337 0 min 0,000 mm 0 W/m 11,4 C 13,0 C 3,2 km/h (1 Bft) 100 %
01.10.2014 23:10 12,7 C 12,7 C 13,0 C 91 % 1027,1 hPa 0,0 l/m 0,0 km/h (0 Bft) N-NO 22 0 min 0,000 mm 0 W/m 11,3 C 12,7 C 4,8 km/h (1 Bft) 100 %
01.10.2014 23:20 12,6 C 12,6 C 12,7 C 90 % 1027,1 hPa 0,0 l/m 0,0 km/h (0 Bft) N 0 0 min 0,000 mm 0 W/m 11,0 C 12,6 C 0,0 km/h (0 Bft) 100 %
01.10.2014 23:30 12,3 C 12,3 C 12,6 C 90 % 1027,2 hPa 0,0 l/m 0,0 km/h (0 Bft) NO 45 0 min 0,000 mm 0 W/m 10,7 C 12,3 C 3,2 km/h (1 Bft) 100 %
01.10.2014 23:40 12,2 C 12,2 C 12,3 C 90 % 1027,1 hPa 0,0 l/m 0,0 km/h (0 Bft) N 0 0 min 0,000 mm 0 W/m 10,6 C 12,2 C 0,0 km/h (0 Bft) 100 %
01.10.2014 23:50 12,1 C 12,1 C 12,2 C 90 % 1027,1 hPa 0,0 l/m 0,0 km/h (0 Bft) NO 45 0 min 0,000 mm 0 W/m 10,5 C 12,1 C 1,6 km/h (1 Bft) 100 %
_ Min-Zeit 04:00 04:00 03:30 14:10 01:20 - 00:00 - - - - - 04:00 04:00 00:10 00:40
Minimum _ 11,5 C 11,5 C 11,6 C 77 % 1024,9 hPa - 0,0 km/h (0 Bft) - - - - - 9,9 C 11,5 C 0,0 km/h (0 Bft) 89 %
_ Max-Zeit 14:10 14:10 14:10 23:10 23:30 14:20 12:30 - - 09:50 14:00 13:50 14:20 14:10 13:10 00:50
Maximum _ 20,2 C 20,1 C 20,2 C 91 % 1027,2 hPa 1,2 l/m 7,1 km/h
S (2 Bft)
- - 10 min 0,356 mm 752 W/m 16,9 C 20,2 C 16,1 km/h
SW (3 Bft)
100 %
Durchschnitt _ 14,5 C 14,4 C 14,6 C 89 % 1025,6 hPa #3,4 l/m 0,6 km/h (0 Bft) S - #4:30 h #1,321 mm 213 W/m 12,8 C 14,5 C 2,4 km/h (1 Bft) 100 %
PRIVATE WETTERSTATION BILLIGHEIM-ALLFELD - www.neckar-odenwald-wetter.de - Holger Sonntag